createdAt,value
2023-05-13T05:02:25.736Z,4.95
2023-05-13T05:07:30.999Z,4.37
2023-05-13T05:12:34.845Z,6.55
2023-05-13T05:17:39.999Z,6.10
2023-05-13T05:22:43.996Z,5.32
2023-05-13T05:27:47.832Z,6.12
2023-05-13T05:32:53.225Z,4.50
2023-05-13T05:37:57.708Z,6.00
2023-05-13T05:48:07.551Z,6.18
2023-05-13T05:53:11.603Z,6.25
2023-05-13T05:58:16.789Z,5.65
2023-05-13T06:03:22.524Z,5.37
2023-05-13T06:08:30.242Z,5.28
2023-05-13T06:13:34.567Z,4.85
2023-05-13T06:18:39.752Z,6.85
2023-05-13T06:23:43.628Z,6.22
2023-05-13T06:28:47.524Z,6.37
2023-05-13T06:33:52.613Z,5.43
2023-05-13T06:38:56.201Z,6.87
2023-05-13T06:44:00.634Z,6.15
2023-05-13T06:49:06.593Z,8.13
2023-05-13T06:54:10.541Z,5.47
2023-05-13T06:59:14.162Z,4.67
2023-05-13T07:04:19.314Z,6.97
2023-05-13T07:09:23.201Z,5.07
2023-05-13T07:14:26.761Z,6.53
2023-05-13T07:19:32.144Z,4.65
2023-05-13T07:24:35.732Z,4.60
2023-05-13T07:29:39.385Z,6.70
2023-05-13T07:34:44.359Z,5.87
2023-05-13T07:39:47.985Z,5.37
2023-05-13T07:44:52.777Z,4.43
2023-05-13T07:49:57.766Z,5.97
2023-05-13T07:55:01.843Z,4.15
2023-05-13T08:00:06.398Z,5.28
2023-05-13T08:05:17.300Z,6.62
2023-05-13T08:10:21.228Z,5.40
2023-05-13T08:15:24.973Z,5.43
2023-05-13T08:20:30.637Z,5.73
2023-05-13T08:25:34.235Z,5.68
2023-05-13T08:30:40.731Z,4.03
2023-05-13T08:35:45.664Z,4.65
2023-05-13T08:40:49.322Z,4.80
2023-05-13T08:45:54.629Z,5.10
2023-05-13T08:51:01.130Z,3.85
2023-05-13T08:56:06.610Z,5.05
2023-05-13T09:01:10.471Z,4.75
2023-05-13T09:06:15.748Z,4.72
2023-05-13T09:11:19.444Z,5.75
2023-05-13T09:16:24.692Z,5.13
2023-05-13T09:21:32.394Z,5.50
2023-05-13T09:26:36.078Z,5.03
2023-05-13T09:31:39.876Z,4.77
2023-05-13T09:36:44.912Z,4.77
2023-05-13T09:41:48.677Z,4.53
2023-05-13T09:46:53.488Z,4.17
2023-05-13T09:51:58.596Z,5.10
2023-05-13T09:57:02.512Z,5.37
2023-05-13T10:02:07.468Z,3.72
2023-05-13T10:07:13.336Z,4.50
2023-05-13T10:12:17.014Z,3.90
2023-05-13T10:17:21.495Z,4.90
2023-05-13T10:27:34.439Z,3.47
2023-05-13T10:32:39.913Z,3.35
2023-05-13T10:38:03.987Z,2.97
2023-05-13T10:43:14.566Z,3.40
2023-05-13T10:48:19.751Z,3.20
2023-05-13T10:53:27.073Z,3.15
2023-05-13T10:58:31.684Z,2.80
2023-05-13T11:03:35.430Z,3.42
2023-05-13T11:08:42.650Z,3.10
2023-05-13T11:13:46.508Z,2.87
2023-05-13T11:18:50.362Z,2.92
2023-05-13T11:23:58.362Z,2.20
2023-05-13T11:29:06.153Z,2.37
2023-05-13T11:34:11.973Z,2.85
2023-05-13T11:39:19.016Z,3.28
2023-05-13T11:44:24.050Z,2.87
2023-05-13T11:49:36.366Z,3.30
2023-05-13T11:54:49.459Z,3.15
2023-05-13T11:59:58.236Z,3.22
2023-05-13T12:05:04.456Z,2.70
2023-05-13T12:10:10.465Z,2.65
2023-05-13T12:15:15.579Z,3.40
2023-05-13T12:20:21.062Z,4.43
2023-05-13T12:25:45.023Z,4.05
2023-05-13T12:30:53.488Z,3.25
2023-05-13T12:36:17.546Z,3.55
2023-05-13T12:41:22.881Z,3.53
2023-05-13T12:46:26.765Z,3.42
2023-05-13T12:51:30.908Z,3.67
2023-05-13T12:56:35.854Z,2.97
2023-05-13T13:01:39.543Z,3.25
2023-05-13T13:06:43.295Z,3.17
2023-05-13T13:11:48.205Z,3.40
2023-05-13T13:16:51.852Z,3.08
2023-05-13T13:21:55.516Z,4.22
2023-05-13T13:27:00.575Z,3.13
2023-05-13T13:32:04.459Z,3.22
2023-05-13T13:37:08.075Z,3.03
2023-05-13T13:42:13.030Z,2.80
2023-05-13T13:47:16.867Z,3.45
2023-05-13T13:52:22.356Z,3.78
2023-05-13T13:57:27.306Z,3.55
2023-05-13T14:02:30.965Z,3.62
2023-05-13T14:07:34.649Z,3.00
2023-05-13T14:12:39.725Z,3.80
2023-05-13T14:17:43.400Z,2.72
2023-05-13T14:22:46.965Z,3.17
2023-05-13T14:27:51.881Z,3.10
2023-05-13T14:32:55.477Z,3.85
2023-05-13T14:37:59.042Z,3.67
2023-05-13T14:43:04.028Z,3.10
2023-05-13T14:48:07.735Z,3.10
2023-05-13T14:53:11.525Z,2.90
2023-05-13T14:58:16.520Z,3.63
2023-05-13T15:03:20.194Z,2.78
2023-05-13T15:08:23.814Z,3.00
2023-05-13T15:13:29.841Z,3.00
2023-05-13T15:18:33.828Z,3.83
2023-05-13T15:23:37.429Z,3.80
2023-05-13T15:28:42.403Z,4.00
2023-05-13T15:33:45.953Z,4.22
2023-05-13T15:38:49.507Z,3.47
2023-05-13T15:43:54.443Z,4.30
2023-05-13T15:48:58.006Z,4.55
2023-05-13T15:54:01.771Z,3.57
2023-05-13T15:59:06.785Z,3.90
2023-05-13T16:04:10.685Z,4.55
2023-05-13T16:09:14.356Z,4.62
2023-05-13T16:14:19.635Z,4.67
2023-05-13T16:19:23.300Z,4.78
2023-05-13T16:24:26.893Z,4.00
2023-05-13T16:29:31.911Z,4.03
2023-05-13T16:34:35.580Z,3.30
2023-05-13T16:39:39.298Z,4.60
2023-05-13T16:44:44.263Z,4.40
2023-05-13T16:49:49.922Z,3.80
2023-05-13T16:54:55.657Z,4.53
2023-05-13T17:00:02.512Z,4.65
2023-05-13T17:05:07.048Z,4.43
2023-05-13T17:15:15.747Z,5.05
2023-05-13T17:20:20.493Z,3.95
2023-05-13T17:25:24.424Z,5.35
2023-05-13T17:30:29.421Z,4.43
2023-05-13T17:35:33.035Z,5.53
2023-05-13T17:40:36.688Z,4.13
2023-05-13T17:45:43.576Z,4.17
2023-05-13T17:50:47.510Z,3.87
2023-05-13T17:55:51.105Z,4.40
2023-05-13T18:00:56.008Z,4.00
2023-05-13T18:05:59.859Z,4.37
2023-05-13T18:11:03.584Z,3.78
2023-05-13T18:16:10.313Z,3.97
2023-05-13T18:21:13.924Z,3.72
2023-05-13T18:26:17.514Z,3.63
2023-05-13T18:31:22.494Z,3.83
2023-05-13T18:36:26.216Z,3.97
2023-05-13T18:41:29.748Z,4.20
2023-05-13T18:46:35.110Z,3.92
2023-05-13T18:51:38.930Z,3.65
2023-05-13T18:56:42.639Z,5.13
2023-05-13T19:01:47.753Z,3.73
2023-05-13T19:06:51.329Z,3.80
2023-05-13T19:11:54.873Z,3.93
2023-05-13T19:16:59.916Z,4.20
2023-05-13T19:22:03.594Z,4.62
2023-05-13T19:27:08.029Z,5.20
2023-05-13T19:32:12.934Z,3.83
2023-05-13T19:37:16.512Z,4.37
2023-05-13T19:42:20.069Z,5.17
2023-05-13T19:47:26.808Z,4.47
2023-05-13T19:52:30.877Z,4.20
2023-05-13T19:57:34.542Z,5.30
2023-05-13T20:02:39.703Z,4.40
2023-05-13T20:07:43.372Z,4.68
2023-05-13T20:12:46.953Z,4.80
2023-05-13T20:17:51.993Z,4.63
2023-05-13T20:22:55.686Z,4.35
2023-05-13T20:27:59.234Z,5.40
2023-05-13T20:33:04.280Z,3.92
2023-05-13T20:38:08.221Z,4.53
2023-05-13T20:43:12.057Z,4.45
2023-05-13T20:48:17.011Z,4.13
2023-05-13T20:53:20.880Z,5.25
2023-05-13T20:58:24.432Z,4.47
2023-05-13T21:03:29.437Z,5.77
2023-05-13T21:08:36.824Z,5.18
2023-05-13T21:13:40.419Z,4.85
2023-05-13T21:18:45.415Z,4.47
2023-05-13T21:23:49.915Z,4.22
2023-05-13T21:28:53.488Z,3.83
2023-05-13T21:33:58.401Z,4.80
2023-05-13T21:39:02.301Z,4.85
2023-05-13T21:44:06.084Z,4.17
2023-05-13T21:49:11.987Z,4.67
2023-05-13T21:54:15.899Z,5.60
2023-05-13T21:59:19.469Z,5.67
2023-05-13T22:04:26.531Z,4.87
2023-05-13T22:09:30.571Z,5.20
2023-05-13T22:14:34.153Z,4.75
2023-05-13T22:19:39.260Z,4.67
2023-05-13T22:24:43.250Z,4.50
2023-05-13T22:29:46.878Z,5.07
